sensor_id;sensor_type;location;lat;lon;timestamp;pressure;altitude;pressure_sealevel;temperature;humidity
11017;BME280;54687;50.800;6.772;2024-02-21T00:00:46;99422.47;;;-144.06;56.57
11017;BME280;54687;50.800;6.772;2024-02-21T00:03:13;99424.59;;;-144.06;56.76
11017;BME280;54687;50.800;6.772;2024-02-21T00:05:40;99403.41;;;-144.06;56.81
11017;BME280;54687;50.800;6.772;2024-02-21T00:08:07;99399.16;;;-144.06;56.54
11017;BME280;54687;50.800;6.772;2024-02-21T00:10:35;99399.16;;;-144.06;56.75
11017;BME280;54687;50.800;6.772;2024-02-21T00:13:01;99411.88;;;-144.06;56.86
11017;BME280;54687;50.800;6.772;2024-02-21T00:15:28;99433.06;;;-144.06;56.50
11017;BME280;54687;50.800;6.772;2024-02-21T00:17:55;99301.66;;;-144.06;56.84
11017;BME280;54687;50.800;6.772;2024-02-21T00:20:21;99329.19;;;-144.06;56.77
11017;BME280;54687;50.800;6.772;2024-02-21T00:22:48;99409.75;;;-144.06;56.64
11017;BME280;54687;50.800;6.772;2024-02-21T00:25:17;99399.16;;;-144.06;56.65
11017;BME280;54687;50.800;6.772;2024-02-21T00:27:45;99441.53;;;-144.06;56.65
11017;BME280;54687;50.800;6.772;2024-02-21T00:30:12;99405.50;;;-144.06;57.00
11017;BME280;54687;50.800;6.772;2024-02-21T00:32:39;99424.59;;;-144.06;56.75
11017;BME280;54687;50.800;6.772;2024-02-21T00:35:06;99433.06;;;-144.06;56.65
11017;BME280;54687;50.800;6.772;2024-02-21T00:37:32;99399.16;;;-144.06;56.75
11017;BME280;54687;50.800;6.772;2024-02-21T00:39:59;99386.44;;;-144.06;56.94
11017;BME280;54687;50.800;6.772;2024-02-21T00:42:25;99386.44;;;-144.06;56.84
11017;BME280;54687;50.800;6.772;2024-02-21T00:44:53;99388.56;;;-144.06;56.83
11017;BME280;54687;50.800;6.772;2024-02-21T00:47:20;99399.16;;;-144.06;56.65
11017;BME280;54687;50.800;6.772;2024-02-21T00:49:46;99403.41;;;-144.06;56.78
11017;BME280;54687;50.800;6.772;2024-02-21T00:52:13;99407.63;;;-144.06;56.85
11017;BME280;54687;50.800;6.772;2024-02-21T00:54:40;99392.78;;;-144.06;56.76
11017;BME280;54687;50.800;6.772;2024-02-21T00:57:06;99424.59;;;-144.06;57.09
11017;BME280;54687;50.800;6.772;2024-02-21T00:59:33;99403.41;;;-144.06;56.96
11017;BME280;54687;50.800;6.772;2024-02-21T01:02:01;99407.63;;;-144.06;56.92
11017;BME280;54687;50.800;6.772;2024-02-21T01:04:27;99424.59;;;-144.06;57.19
11017;BME280;54687;50.800;6.772;2024-02-21T01:06:54;99426.72;;;-144.06;57.20
11017;BME280;54687;50.800;6.772;2024-02-21T01:09:20;99382.19;;;-144.06;57.43
11017;BME280;54687;50.800;6.772;2024-02-21T01:11:47;99392.78;;;-144.06;57.48
11017;BME280;54687;50.800;6.772;2024-02-21T01:14:14;99424.59;;;-144.06;57.37
11017;BME280;54687;50.800;6.772;2024-02-21T01:16:42;99416.13;;;-144.06;57.68
11017;BME280;54687;50.800;6.772;2024-02-21T01:19:10;99420.34;;;-144.06;57.51
11017;BME280;54687;50.800;6.772;2024-02-21T01:21:38;99409.75;;;-144.06;57.55
11017;BME280;54687;50.800;6.772;2024-02-21T01:24:05;99437.31;;;-144.06;57.46
11017;BME280;54687;50.800;6.772;2024-02-21T01:26:33;99430.94;;;-144.06;57.54
11017;BME280;54687;50.800;6.772;2024-02-21T01:29:00;99454.25;;;-144.06;57.66
11017;BME280;54687;50.800;6.772;2024-02-21T01:31:29;99426.72;;;-144.06;57.76
11017;BME280;54687;50.800;6.772;2024-02-21T01:33:57;99456.38;;;-144.06;57.95
11017;BME280;54687;50.800;6.772;2024-02-21T01:36:26;99439.44;;;-144.06;57.81
11017;BME280;54687;50.800;6.772;2024-02-21T01:38:52;99428.81;;;-144.06;57.79
11017;BME280;54687;50.800;6.772;2024-02-21T01:41:19;99462.75;;;-144.06;57.88
11017;BME280;54687;50.800;6.772;2024-02-21T01:43:46;99430.94;;;-144.06;57.44
11017;BME280;54687;50.800;6.772;2024-02-21T01:46:14;99411.88;;;-144.06;57.82
11017;BME280;54687;50.800;6.772;2024-02-21T01:48:41;99445.78;;;-144.06;57.75
11017;BME280;54687;50.800;6.772;2024-02-21T01:51:08;99433.06;;;-144.06;57.78
11017;BME280;54687;50.800;6.772;2024-02-21T01:53:38;99282.56;;;-144.06;57.94
11017;BME280;54687;50.800;6.772;2024-02-21T01:56:08;99403.41;;;-144.06;58.19
11017;BME280;54687;50.800;6.772;2024-02-21T01:58:37;99401.28;;;-144.06;57.95
11017;BME280;54687;50.800;6.772;2024-02-21T02:01:04;99439.44;;;-144.06;57.78
11017;BME280;54687;50.800;6.772;2024-02-21T02:03:32;99433.06;;;-144.06;57.89
11017;BME280;54687;50.800;6.772;2024-02-21T02:05:59;99322.84;;;-144.06;58.17
11017;BME280;54687;50.800;6.772;2024-02-21T02:08:25;99437.31;;;-144.06;58.12
11017;BME280;54687;50.800;6.772;2024-02-21T02:10:54;99409.75;;;-144.06;58.39
11017;BME280;54687;50.800;6.772;2024-02-21T02:13:20;99447.91;;;-144.06;58.26
11017;BME280;54687;50.800;6.772;2024-02-21T02:15:48;99394.91;;;-144.06;58.30
11017;BME280;54687;50.800;6.772;2024-02-21T02:18:16;99377.94;;;-144.06;58.44
11017;BME280;54687;50.800;6.772;2024-02-21T02:20:44;99441.53;;;-144.06;58.54
11017;BME280;54687;50.800;6.772;2024-02-21T02:23:11;99447.91;;;-144.06;58.48
11017;BME280;54687;50.800;6.772;2024-02-21T02:25:40;99426.72;;;-144.06;58.30
11017;BME280;54687;50.800;6.772;2024-02-21T02:28:07;99403.41;;;-144.06;58.22
11017;BME280;54687;50.800;6.772;2024-02-21T02:30:34;99464.88;;;-144.06;58.33
11017;BME280;54687;50.800;6.772;2024-02-21T02:33:01;99456.38;;;-144.06;58.36
11017;BME280;54687;50.800;6.772;2024-02-21T02:35:28;99441.53;;;-144.06;58.47
11017;BME280;54687;50.800;6.772;2024-02-21T02:37:54;99399.16;;;-144.06;58.36
11017;BME280;54687;50.800;6.772;2024-02-21T02:40:21;99428.81;;;-144.06;58.63
11017;BME280;54687;50.800;6.772;2024-02-21T02:42:49;99401.28;;;-144.06;58.96
11017;BME280;54687;50.800;6.772;2024-02-21T02:45:16;99445.78;;;-144.06;59.13
11017;BME280;54687;50.800;6.772;2024-02-21T02:47:44;99454.25;;;-144.06;58.69
11017;BME280;54687;50.800;6.772;2024-02-21T02:50:11;99435.19;;;-144.06;59.05
11017;BME280;54687;50.800;6.772;2024-02-21T02:52:38;99452.16;;;-144.06;58.88
11017;BME280;54687;50.800;6.772;2024-02-21T02:55:05;99445.78;;;-144.06;58.37
11017;BME280;54687;50.800;6.772;2024-02-21T02:57:32;99450.03;;;-144.06;58.58
11017;BME280;54687;50.800;6.772;2024-02-21T03:00:00;99428.81;;;-144.06;58.41
11017;BME280;54687;50.800;6.772;2024-02-21T03:02:26;99422.47;;;-144.06;58.65
11017;BME280;54687;50.800;6.772;2024-02-21T03:04:53;99464.88;;;-144.06;58.55
11017;BME280;54687;50.800;6.772;2024-02-21T03:07:20;99394.91;;;-144.06;58.22
11017;BME280;54687;50.800;6.772;2024-02-21T03:09:46;99447.91;;;-144.06;58.41
11017;BME280;54687;50.800;6.772;2024-02-21T03:12:14;99458.50;;;-144.06;58.41
11017;BME280;54687;50.800;6.772;2024-02-21T03:14:49;99479.72;;;-144.06;58.67
11017;BME280;54687;50.800;6.772;2024-02-21T03:17:17;99479.72;;;-144.06;58.67
11017;BME280;54687;50.800;6.772;2024-02-21T03:19:43;99462.75;;;-144.06;58.67
11017;BME280;54687;50.800;6.772;2024-02-21T03:22:10;99388.56;;;-144.06;58.79
11017;BME280;54687;50.800;6.772;2024-02-21T03:24:36;99471.22;;;-144.06;58.54
11017;BME280;54687;50.800;6.772;2024-02-21T03:27:03;99475.47;;;-144.06;58.64
11017;BME280;54687;50.800;6.772;2024-02-21T03:29:30;99407.63;;;-144.06;58.93
11017;BME280;54687;50.800;6.772;2024-02-21T03:31:57;99479.72;;;-144.06;58.99
11017;BME280;54687;50.800;6.772;2024-02-21T03:34:25;99481.81;;;-144.06;59.18
11017;BME280;54687;50.800;6.772;2024-02-21T03:36:51;99505.13;;;-144.06;59.01
11017;BME280;54687;50.800;6.772;2024-02-21T03:39:18;99475.47;;;-144.06;59.14
11017;BME280;54687;50.800;6.772;2024-02-21T03:41:45;99517.84;;;-144.06;58.96
11017;BME280;54687;50.800;6.772;2024-02-21T03:44:12;99458.50;;;-144.06;58.99
11017;BME280;54687;50.800;6.772;2024-02-21T03:46:38;99509.38;;;-144.06;59.10
11017;BME280;54687;50.800;6.772;2024-02-21T03:49:05;99500.91;;;-144.06;59.25
11017;BME280;54687;50.800;6.772;2024-02-21T03:51:33;99458.50;;;-144.06;59.23
11017;BME280;54687;50.800;6.772;2024-02-21T03:54:00;99515.75;;;-144.06;59.14
11017;BME280;54687;50.800;6.772;2024-02-21T03:56:27;99536.94;;;-144.06;59.25
11017;BME280;54687;50.800;6.772;2024-02-21T03:58:53;99466.97;;;-144.06;59.01
11017;BME280;54687;50.800;6.772;2024-02-21T04:01:20;99483.94;;;-144.06;59.31
11017;BME280;54687;50.800;6.772;2024-02-21T04:03:47;99488.19;;;-144.06;59.03
11017;BME280;54687;50.800;6.772;2024-02-21T04:06:14;99498.78;;;-144.06;59.16
11017;BME280;54687;50.800;6.772;2024-02-21T04:08:42;99483.94;;;-144.06;59.02
11017;BME280;54687;50.800;6.772;2024-02-21T04:11:08;99507.25;;;-144.06;59.16
11017;BME280;54687;50.800;6.772;2024-02-21T04:13:35;99454.25;;;-144.06;58.98
11017;BME280;54687;50.800;6.772;2024-02-21T04:16:01;99479.72;;;-144.06;59.23
11017;BME280;54687;50.800;6.772;2024-02-21T04:18:28;99464.88;;;-144.06;58.90
11017;BME280;54687;50.800;6.772;2024-02-21T04:20:55;99483.94;;;-144.06;59.17
11017;BME280;54687;50.800;6.772;2024-02-21T04:23:21;99492.41;;;-144.06;59.03
11017;BME280;54687;50.800;6.772;2024-02-21T04:25:49;99267.72;;;-144.06;58.92
11017;BME280;54687;50.800;6.772;2024-02-21T04:28:17;99424.59;;;-144.06;59.08
11017;BME280;54687;50.800;6.772;2024-02-21T04:30:44;99450.03;;;-144.06;58.82
11017;BME280;54687;50.800;6.772;2024-02-21T04:33:10;99475.47;;;-144.06;58.96
11017;BME280;54687;50.800;6.772;2024-02-21T04:35:37;99471.22;;;-144.06;58.75
11017;BME280;54687;50.800;6.772;2024-02-21T04:38:04;99445.78;;;-144.06;58.54
11017;BME280;54687;50.800;6.772;2024-02-21T04:40:31;99488.19;;;-144.06;58.84
11017;BME280;54687;50.800;6.772;2024-02-21T04:42:59;99454.25;;;-144.06;58.50
11017;BME280;54687;50.800;6.772;2024-02-21T04:45:26;99469.09;;;-144.06;59.00
11017;BME280;54687;50.800;6.772;2024-02-21T04:47:53;99466.97;;;-144.06;58.97
11017;BME280;54687;50.800;6.772;2024-02-21T04:50:19;99483.94;;;-144.06;58.85
11017;BME280;54687;50.800;6.772;2024-02-21T04:52:46;99458.50;;;-144.06;59.21
11017;BME280;54687;50.800;6.772;2024-02-21T04:55:13;99475.47;;;-144.06;59.03
11017;BME280;54687;50.800;6.772;2024-02-21T04:57:39;99439.44;;;-144.06;58.89
11017;BME280;54687;50.800;6.772;2024-02-21T05:00:08;99435.19;;;-144.06;58.76
11017;BME280;54687;50.800;6.772;2024-02-21T05:02:35;99471.22;;;-144.06;58.79
11017;BME280;54687;50.800;6.772;2024-02-21T05:05:01;99477.59;;;-144.06;58.73
11017;BME280;54687;50.800;6.772;2024-02-21T05:07:28;99456.38;;;-144.06;59.00
11017;BME280;54687;50.800;6.772;2024-02-21T05:09:55;99466.97;;;-144.06;58.88
11017;BME280;54687;50.800;6.772;2024-02-21T05:12:22;99445.78;;;-144.06;58.87
11017;BME280;54687;50.800;6.772;2024-02-21T05:14:48;99473.34;;;-144.06;58.88
11017;BME280;54687;50.800;6.772;2024-02-21T05:17:16;99471.22;;;-144.06;58.91
11017;BME280;54687;50.800;6.772;2024-02-21T05:19:43;99377.94;;;-144.06;58.73
11017;BME280;54687;50.800;6.772;2024-02-21T05:22:10;99479.72;;;-144.06;59.01
11017;BME280;54687;50.800;6.772;2024-02-21T05:24:39;99452.16;;;-144.06;58.85
11017;BME280;54687;50.800;6.772;2024-02-21T05:27:05;99435.19;;;-144.06;58.52
11017;BME280;54687;50.800;6.772;2024-02-21T05:29:32;99411.88;;;-144.06;58.74
11017;BME280;54687;50.800;6.772;2024-02-21T05:31:59;99303.78;;;-144.06;58.74
11017;BME280;54687;50.800;6.772;2024-02-21T05:34:27;99458.50;;;-144.06;58.85
11017;BME280;54687;50.800;6.772;2024-02-21T05:36:53;99458.50;;;-144.06;58.67
11017;BME280;54687;50.800;6.772;2024-02-21T05:39:20;99450.03;;;-144.06;58.54
11017;BME280;54687;50.800;6.772;2024-02-21T05:41:48;99435.19;;;-144.06;58.59
11017;BME280;54687;50.800;6.772;2024-02-21T05:44:15;99460.63;;;-144.06;58.49
11017;BME280;54687;50.800;6.772;2024-02-21T05:46:41;99443.66;;;-144.06;58.46
11017;BME280;54687;50.800;6.772;2024-02-21T05:49:08;99458.50;;;-144.06;58.50
11017;BME280;54687;50.800;6.772;2024-02-21T05:51:36;99454.25;;;-144.06;58.30
11017;BME280;54687;50.800;6.772;2024-02-21T05:54:03;99450.03;;;-144.06;58.40
11017;BME280;54687;50.800;6.772;2024-02-21T05:56:29;99437.31;;;-144.06;58.22
11017;BME280;54687;50.800;6.772;2024-02-21T05:58:56;99450.03;;;-144.06;58.37
11017;BME280;54687;50.800;6.772;2024-02-21T06:01:23;99350.41;;;-144.06;58.45
11017;BME280;54687;50.800;6.772;2024-02-21T06:03:49;99428.81;;;-144.06;58.18
11017;BME280;54687;50.800;6.772;2024-02-21T06:06:16;99443.66;;;-144.06;58.21
11017;BME280;54687;50.800;6.772;2024-02-21T06:08:44;99454.25;;;-144.06;58.01
11017;BME280;54687;50.800;6.772;2024-02-21T06:11:10;99445.78;;;-144.06;58.10
11017;BME280;54687;50.800;6.772;2024-02-21T06:13:38;99450.03;;;-144.06;58.16
11017;BME280;54687;50.800;6.772;2024-02-21T06:16:06;99405.50;;;-144.06;58.14
11017;BME280;54687;50.800;6.772;2024-02-21T06:18:33;99445.78;;;-144.06;57.78
11017;BME280;54687;50.800;6.772;2024-02-21T06:21:00;99454.25;;;-144.06;57.82
11017;BME280;54687;50.800;6.772;2024-02-21T06:23:26;99433.06;;;-144.06;58.17
11017;BME280;54687;50.800;6.772;2024-02-21T06:25:54;99950.31;;;-144.06;58.25
11017;BME280;54687;50.800;6.772;2024-02-21T06:28:21;99445.78;;;-144.06;58.25
11017;BME280;54687;50.800;6.772;2024-02-21T06:30:47;99450.03;;;-144.06;58.47
11017;BME280;54687;50.800;6.772;2024-02-21T06:33:14;99460.63;;;-144.06;58.85
11017;BME280;54687;50.800;6.772;2024-02-21T06:35:40;99437.31;;;-144.06;58.59
11017;BME280;54687;50.800;6.772;2024-02-21T06:38:08;99426.72;;;-144.06;58.67
11017;BME280;54687;50.800;6.772;2024-02-21T06:40:34;99458.50;;;-144.06;58.59
11017;BME280;54687;50.800;6.772;2024-02-21T06:43:06;99454.25;;;-144.06;58.71
11017;BME280;54687;50.800;6.772;2024-02-21T06:45:32;99411.88;;;-144.06;58.69
11017;BME280;54687;50.800;6.772;2024-02-21T06:47:59;99458.50;;;-144.06;58.69
11017;BME280;54687;50.800;6.772;2024-02-21T06:50:25;99422.47;;;-144.06;58.39
11017;BME280;54687;50.800;6.772;2024-02-21T06:52:52;99424.59;;;-144.06;58.24
11017;BME280;54687;50.800;6.772;2024-02-21T06:55:19;99437.31;;;-144.06;58.39
11017;BME280;54687;50.800;6.772;2024-02-21T06:57:45;99424.59;;;-144.06;58.47
11017;BME280;54687;50.800;6.772;2024-02-21T07:00:16;99452.16;;;-144.06;58.46
11017;BME280;54687;50.800;6.772;2024-02-21T07:02:43;99428.81;;;-144.06;58.27
11017;BME280;54687;50.800;6.772;2024-02-21T07:05:09;99386.44;;;-144.06;58.36
11017;BME280;54687;50.800;6.772;2024-02-21T07:07:36;99428.81;;;-144.06;58.19
11017;BME280;54687;50.800;6.772;2024-02-21T07:10:03;99450.03;;;-144.06;58.18
11017;BME280;54687;50.800;6.772;2024-02-21T07:12:30;99414.00;;;-144.06;58.19
11017;BME280;54687;50.800;6.772;2024-02-21T07:14:56;99420.34;;;-144.06;58.30
11017;BME280;54687;50.800;6.772;2024-02-21T07:17:24;99443.66;;;-144.06;58.10
11017;BME280;54687;50.800;6.772;2024-02-21T07:19:51;99433.06;;;-144.06;58.14
11017;BME280;54687;50.800;6.772;2024-02-21T07:22:17;99424.59;;;-144.06;58.17
11017;BME280;54687;50.800;6.772;2024-02-21T07:24:44;99422.47;;;-144.06;58.18
11017;BME280;54687;50.800;6.772;2024-02-21T07:27:11;99422.47;;;-144.06;57.94
11017;BME280;54687;50.800;6.772;2024-02-21T07:29:39;99403.41;;;-144.06;57.81
11017;BME280;54687;50.800;6.772;2024-02-21T07:32:06;99454.25;;;-144.06;57.75
11017;BME280;54687;50.800;6.772;2024-02-21T07:34:34;99437.31;;;-144.06;57.61
11017;BME280;54687;50.800;6.772;2024-02-21T07:37:01;99411.88;;;-144.06;57.81
11017;BME280;54687;50.800;6.772;2024-02-21T07:39:27;99454.25;;;-144.06;57.91
11017;BME280;54687;50.800;6.772;2024-02-21T07:41:54;99456.38;;;-144.06;57.79
11017;BME280;54687;50.800;6.772;2024-02-21T07:44:20;99428.81;;;-144.06;57.72
11017;BME280;54687;50.800;6.772;2024-02-21T07:46:47;99409.75;;;-144.06;57.57
11017;BME280;54687;50.800;6.772;2024-02-21T07:49:13;99416.13;;;-144.06;57.51
11017;BME280;54687;50.800;6.772;2024-02-21T07:51:41;99407.63;;;-144.06;57.05
11017;BME280;54687;50.800;6.772;2024-02-21T07:54:08;99454.25;;;-144.06;56.91
11017;BME280;54687;50.800;6.772;2024-02-21T07:56:34;99424.59;;;-144.06;56.75
11017;BME280;54687;50.800;6.772;2024-02-21T07:59:01;99407.63;;;-144.06;56.78
11017;BME280;54687;50.800;6.772;2024-02-21T08:01:28;99403.41;;;-144.06;56.64
11017;BME280;54687;50.800;6.772;2024-02-21T08:03:54;99386.44;;;-144.06;56.58
11017;BME280;54687;50.800;6.772;2024-02-21T08:06:21;99414.00;;;-144.06;56.32
11017;BME280;54687;50.800;6.772;2024-02-21T08:08:49;99365.25;;;-144.06;56.11
11017;BME280;54687;50.800;6.772;2024-02-21T08:11:15;99384.31;;;-144.06;56.07
11017;BME280;54687;50.800;6.772;2024-02-21T08:13:42;99420.34;;;-144.06;55.83
11017;BME280;54687;50.800;6.772;2024-02-21T08:16:08;99339.81;;;-144.06;55.67
11017;BME280;54687;50.800;6.772;2024-02-21T08:18:35;99350.41;;;-144.06;55.23
11017;BME280;54687;50.800;6.772;2024-02-21T08:21:03;99339.81;;;-144.06;55.33
11017;BME280;54687;50.800;6.772;2024-02-21T08:23:30;99371.59;;;-144.06;54.75
11017;BME280;54687;50.800;6.772;2024-02-21T08:25:58;99377.94;;;-144.06;54.82
11017;BME280;54687;50.800;6.772;2024-02-21T08:28:24;99322.84;;;-144.06;54.72
11017;BME280;54687;50.800;6.772;2024-02-21T08:30:51;99297.41;;;-144.06;54.18
11017;BME280;54687;50.800;6.772;2024-02-21T08:33:18;99356.75;;;-144.06;53.63
11017;BME280;54687;50.800;6.772;2024-02-21T08:35:49;99293.16;;;-144.06;53.61
11017;BME280;54687;50.800;6.772;2024-02-21T08:38:16;99299.53;;;-144.06;53.14
11017;BME280;54687;50.800;6.772;2024-02-21T08:40:43;99314.38;;;-144.06;53.06
11017;BME280;54687;50.800;6.772;2024-02-21T08:43:11;99301.66;;;-144.06;52.85
11017;BME280;54687;50.800;6.772;2024-02-21T08:45:37;99274.09;;;-144.06;52.88
11017;BME280;54687;50.800;6.772;2024-02-21T08:48:05;99255.00;;;-144.06;52.27
11017;BME280;54687;50.800;6.772;2024-02-21T08:50:32;99267.72;;;-144.06;52.63
11017;BME280;54687;50.800;6.772;2024-02-21T08:52:58;99242.28;;;-144.06;53.09
11017;BME280;54687;50.800;6.772;2024-02-21T08:55:25;99212.63;;;-144.06;53.07
11017;BME280;54687;50.800;6.772;2024-02-21T08:57:51;99210.50;;;-144.06;52.90
11017;BME280;54687;50.800;6.772;2024-02-21T09:00:20;99199.91;;;-144.06;52.17
11017;BME280;54687;50.800;6.772;2024-02-21T09:02:52;99204.16;;;-144.06;51.43
11017;BME280;54687;50.800;6.772;2024-02-21T09:05:20;99187.19;;;-144.06;50.96
11017;BME280;54687;50.800;6.772;2024-02-21T09:07:47;99189.31;;;-144.06;50.67
11017;BME280;54687;50.800;6.772;2024-02-21T09:10:14;99195.66;;;-144.06;50.43
11017;BME280;54687;50.800;6.772;2024-02-21T09:12:40;99161.75;;;-144.06;50.33
11017;BME280;54687;50.800;6.772;2024-02-21T09:15:08;99197.78;;;-144.06;50.57
11017;BME280;54687;50.800;6.772;2024-02-21T09:17:36;99174.47;;;-144.06;50.57
11017;BME280;54687;50.800;6.772;2024-02-21T09:20:03;99166.00;;;-144.06;49.75
11017;BME280;54687;50.800;6.772;2024-02-21T09:22:29;99176.59;;;-144.06;49.27
11017;BME280;54687;50.800;6.772;2024-02-21T09:24:56;99172.34;;;-144.06;49.96
11017;BME280;54687;50.800;6.772;2024-02-21T09:27:23;99153.28;;;-144.06;49.34
11017;BME280;54687;50.800;6.772;2024-02-21T09:29:49;99149.03;;;-144.06;49.26
11017;BME280;54687;50.800;6.772;2024-02-21T09:32:16;99149.03;;;-144.06;49.31
11017;BME280;54687;50.800;6.772;2024-02-21T09:34:44;99155.41;;;-144.06;49.12
11017;BME280;54687;50.800;6.772;2024-02-21T09:37:11;99212.63;;;-144.06;49.45
11017;BME280;54687;50.800;6.772;2024-02-21T09:39:37;99119.34;;;-144.06;49.16
11017;BME280;54687;50.800;6.772;2024-02-21T09:42:06;99149.03;;;-144.06;48.79
11017;BME280;54687;50.800;6.772;2024-02-21T09:44:36;99115.13;;;-144.06;48.61
11017;BME280;54687;50.800;6.772;2024-02-21T09:47:07;99000.66;;;-144.06;49.28
11017;BME280;54687;50.800;6.772;2024-02-21T09:49:37;99102.41;;;-144.06;48.81
11017;BME280;54687;50.800;6.772;2024-02-21T09:52:05;99089.69;;;-144.06;48.91
11017;BME280;54687;50.800;6.772;2024-02-21T09:54:33;99098.16;;;-144.06;48.78
11017;BME280;54687;50.800;6.772;2024-02-21T09:57:00;99068.50;;;-144.06;48.44
11017;BME280;54687;50.800;6.772;2024-02-21T09:59:27;99102.41;;;-144.06;48.82
11017;BME280;54687;50.800;6.772;2024-02-21T10:01:55;99098.16;;;-144.06;48.40
11017;BME280;54687;50.800;6.772;2024-02-21T10:04:24;99060.00;;;-144.06;47.78
11017;BME280;54687;50.800;6.772;2024-02-21T10:06:51;99102.41;;;-144.06;47.58
11017;BME280;54687;50.800;6.772;2024-02-21T10:09:23;99104.53;;;-144.06;47.71
11017;BME280;54687;50.800;6.772;2024-02-21T10:11:50;99079.09;;;-144.06;47.49
11017;BME280;54687;50.800;6.772;2024-02-21T10:14:16;99076.97;;;-144.06;47.80
11017;BME280;54687;50.800;6.772;2024-02-21T10:16:44;99076.97;;;-144.06;48.08
11017;BME280;54687;50.800;6.772;2024-02-21T10:19:18;99096.03;;;-144.06;47.53
11017;BME280;54687;50.800;6.772;2024-02-21T10:21:58;99064.25;;;-144.06;47.87
11017;BME280;54687;50.800;6.772;2024-02-21T10:24:27;99011.25;;;-144.06;47.21
11017;BME280;54687;50.800;6.772;2024-02-21T10:26:59;99047.28;;;-144.06;47.12
11017;BME280;54687;50.800;6.772;2024-02-21T10:29:26;98981.59;;;-144.06;47.40
11017;BME280;54687;50.800;6.772;2024-02-21T10:32:03;99066.38;;;-144.06;47.36
11017;BME280;54687;50.800;6.772;2024-02-21T10:34:30;99055.78;;;-144.06;47.24
11017;BME280;54687;50.800;6.772;2024-02-21T10:37:00;99043.06;;;-144.06;47.33
11017;BME280;54687;50.800;6.772;2024-02-21T10:39:28;99060.00;;;-144.06;47.14
11017;BME280;54687;50.800;6.772;2024-02-21T10:41:57;99032.47;;;-144.06;47.66
11017;BME280;54687;50.800;6.772;2024-02-21T10:44:28;99004.91;;;-144.06;47.28
11017;BME280;54687;50.800;6.772;2024-02-21T10:46:55;99032.47;;;-144.06;47.24
11017;BME280;54687;50.800;6.772;2024-02-21T10:49:23;98992.19;;;-144.06;47.05
11017;BME280;54687;50.800;6.772;2024-02-21T10:51:55;99000.66;;;-144.06;47.11
11017;BME280;54687;50.800;6.772;2024-02-21T10:54:44;98998.53;;;-144.06;46.72
11017;BME280;54687;50.800;6.772;2024-02-21T10:57:12;98964.63;;;-144.06;46.63
11017;BME280;54687;50.800;6.772;2024-02-21T10:59:40;99000.66;;;-144.06;46.77
11017;BME280;54687;50.800;6.772;2024-02-21T11:02:07;98987.94;;;-144.06;47.20
11017;BME280;54687;50.800;6.772;2024-02-21T11:04:35;98968.88;;;-144.06;46.98
11017;BME280;54687;50.800;6.772;2024-02-21T11:07:03;98964.63;;;-144.06;46.37
11017;BME280;54687;50.800;6.772;2024-02-21T11:09:31;98966.75;;;-144.06;46.31
11017;BME280;54687;50.800;6.772;2024-02-21T11:12:02;98966.75;;;-144.06;46.60
11017;BME280;54687;50.800;6.772;2024-02-21T11:14:30;98949.81;;;-144.06;46.88
11017;BME280;54687;50.800;6.772;2024-02-21T11:16:58;98943.44;;;-144.06;46.45
11017;BME280;54687;50.800;6.772;2024-02-21T11:19:26;98987.94;;;-144.06;46.87
11017;BME280;54687;50.800;6.772;2024-02-21T11:21:54;98971.00;;;-144.06;46.61
11017;BME280;54687;50.800;6.772;2024-02-21T11:24:29;98962.53;;;-144.06;46.72
11017;BME280;54687;50.800;6.772;2024-02-21T11:26:56;98865.03;;;-144.06;46.42
11017;BME280;54687;50.800;6.772;2024-02-21T11:29:25;98964.63;;;-144.06;46.45
11017;BME280;54687;50.800;6.772;2024-02-21T11:31:52;98930.72;;;-144.06;46.48
11017;BME280;54687;50.800;6.772;2024-02-21T11:34:19;98934.97;;;-144.06;46.45
11017;BME280;54687;50.800;6.772;2024-02-21T11:36:46;98937.09;;;-144.06;46.47
11017;BME280;54687;50.800;6.772;2024-02-21T11:39:18;98905.28;;;-144.06;46.45
11017;BME280;54687;50.800;6.772;2024-02-21T11:41:47;98945.56;;;-144.06;46.34
11017;BME280;54687;50.800;6.772;2024-02-21T11:44:13;98943.44;;;-144.06;46.38
11017;BME280;54687;50.800;6.772;2024-02-21T11:46:42;98907.41;;;-144.06;46.13
11017;BME280;54687;50.800;6.772;2024-02-21T11:49:09;98835.34;;;-144.06;46.08
11017;BME280;54687;50.800;6.772;2024-02-21T11:51:36;98903.19;;;-144.06;45.86
11017;BME280;54687;50.800;6.772;2024-02-21T11:54:03;98869.25;;;-144.06;46.42
11017;BME280;54687;50.800;6.772;2024-02-21T11:56:30;98941.31;;;-144.06;46.58
11017;BME280;54687;50.800;6.772;2024-02-21T11:58:58;98922.25;;;-144.06;47.02
11017;BME280;54687;50.800;6.772;2024-02-21T12:01:25;98909.53;;;-144.06;47.09
11017;BME280;54687;50.800;6.772;2024-02-21T12:03:53;98947.69;;;-144.06;46.84
11017;BME280;54687;50.800;6.772;2024-02-21T12:06:21;98907.41;;;-144.06;47.05
11017;BME280;54687;50.800;6.772;2024-02-21T12:08:48;98943.44;;;-144.06;46.55
11017;BME280;54687;50.800;6.772;2024-02-21T12:11:21;98981.59;;;-144.06;46.31
11017;BME280;54687;50.800;6.772;2024-02-21T12:13:58;98926.50;;;-144.06;46.33
11017;BME280;54687;50.800;6.772;2024-02-21T12:16:26;98920.13;;;-144.06;46.41
11017;BME280;54687;50.800;6.772;2024-02-21T12:18:54;98881.97;;;-144.06;46.87
11017;BME280;54687;50.800;6.772;2024-02-21T12:21:24;98975.22;;;-144.06;46.97
11017;BME280;54687;50.800;6.772;2024-02-21T12:23:51;98932.84;;;-144.06;46.93
11017;BME280;54687;50.800;6.772;2024-02-21T12:26:17;98937.09;;;-144.06;46.79
11017;BME280;54687;50.800;6.772;2024-02-21T12:28:44;98949.81;;;-144.06;46.85
11017;BME280;54687;50.800;6.772;2024-02-21T12:31:10;98911.66;;;-144.06;47.20
11017;BME280;54687;50.800;6.772;2024-02-21T12:33:37;98911.66;;;-144.06;47.24
11017;BME280;54687;50.800;6.772;2024-02-21T12:36:05;98907.41;;;-144.06;46.99
11017;BME280;54687;50.800;6.772;2024-02-21T12:38:34;98932.84;;;-144.06;46.72
11017;BME280;54687;50.800;6.772;2024-02-21T12:41:00;98930.72;;;-144.06;46.63